createdAt,value
2018-07-02T00:00:48.060Z,15.70
2018-07-02T00:03:16.317Z,15.70
2018-07-02T00:05:55.836Z,15.70
2018-07-02T00:08:24.108Z,15.60
2018-07-02T00:10:52.306Z,15.50
2018-07-02T00:13:20.587Z,15.50
2018-07-02T00:15:48.857Z,15.50
2018-07-02T00:18:17.055Z,15.40
2018-07-02T00:20:45.249Z,15.30
2018-07-02T00:23:13.498Z,15.30
2018-07-02T00:25:41.725Z,15.30
2018-07-02T00:28:09.913Z,15.30
2018-07-02T00:30:38.106Z,15.20
2018-07-02T00:33:06.286Z,15.30
2018-07-02T00:35:34.482Z,15.40
2018-07-02T00:38:02.721Z,15.40
2018-07-02T00:40:30.894Z,15.40
2018-07-02T00:42:59.095Z,15.40
2018-07-02T00:45:27.290Z,15.50
2018-07-02T00:47:55.486Z,15.40
2018-07-02T00:50:23.689Z,15.40
2018-07-02T00:52:51.966Z,15.20
2018-07-02T00:55:20.302Z,15.20
2018-07-02T00:57:48.513Z,15.20
2018-07-02T01:00:17.249Z,15.20
2018-07-02T01:02:45.442Z,15.20
2018-07-02T01:05:13.889Z,15.20
2018-07-02T01:07:43.357Z,15.20
2018-07-02T01:10:11.555Z,15.10
2018-07-02T01:12:39.850Z,15.20
2018-07-02T01:15:08.074Z,15.20
2018-07-02T01:17:36.270Z,15.00
2018-07-02T01:20:04.512Z,15.10
2018-07-02T01:22:32.719Z,15.10
2018-07-02T01:25:00.921Z,15.10
2018-07-02T01:27:33.419Z,14.90
2018-07-02T01:30:02.430Z,14.70
2018-07-02T01:32:30.602Z,14.70
2018-07-02T01:34:58.899Z,14.70
2018-07-02T01:37:27.109Z,14.70
2018-07-02T01:39:55.293Z,14.70
2018-07-02T01:42:23.534Z,14.70
2018-07-02T01:44:51.782Z,14.60
2018-07-02T01:47:19.991Z,14.60
2018-07-02T01:49:48.169Z,14.60
2018-07-02T01:52:16.418Z,14.50
2018-07-02T01:54:44.630Z,14.60
2018-07-02T01:57:12.869Z,14.60
2018-07-02T01:59:41.054Z,14.60
2018-07-02T02:02:09.341Z,14.50
2018-07-02T02:04:37.551Z,14.50
2018-07-02T02:07:05.943Z,14.60
2018-07-02T02:09:34.182Z,14.60
2018-07-02T02:12:02.430Z,14.40
2018-07-02T02:14:30.610Z,14.00
2018-07-02T02:16:58.874Z,14.00
2018-07-02T02:19:27.149Z,14.00
2018-07-02T02:21:55.426Z,14.10
2018-07-02T02:24:23.634Z,14.10
2018-07-02T02:26:52.010Z,14.10
2018-07-02T02:29:20.262Z,14.10
2018-07-02T02:31:48.511Z,13.90
2018-07-02T02:34:16.734Z,13.80
2018-07-02T02:36:44.982Z,13.70
2018-07-02T02:39:13.214Z,13.70
2018-07-02T02:41:41.442Z,13.60
2018-07-02T02:44:09.639Z,13.60
2018-07-02T02:46:37.846Z,13.60
2018-07-02T02:49:06.136Z,13.50
2018-07-02T02:51:34.403Z,13.40
2018-07-02T02:54:02.667Z,13.50
2018-07-02T02:56:30.857Z,13.50
2018-07-02T02:58:59.090Z,13.40
2018-07-02T03:01:27.328Z,13.30
2018-07-02T03:03:55.548Z,13.20
2018-07-02T03:06:23.765Z,13.20
2018-07-02T03:08:51.968Z,13.30
2018-07-02T03:11:20.176Z,13.50
2018-07-02T03:13:48.402Z,13.50
2018-07-02T03:16:16.638Z,13.60
2018-07-02T03:18:44.910Z,13.70
2018-07-02T03:21:13.902Z,13.80
2018-07-02T03:23:42.188Z,13.80
2018-07-02T03:26:10.962Z,13.80
2018-07-02T03:28:39.301Z,13.80
2018-07-02T03:31:07.520Z,13.80
2018-07-02T03:33:35.834Z,13.70
2018-07-02T03:36:04.078Z,13.60
2018-07-02T03:38:32.370Z,13.20
2018-07-02T03:41:00.636Z,13.30
2018-07-02T03:43:28.841Z,13.20
2018-07-02T03:45:57.124Z,13.30
2018-07-02T03:48:25.433Z,13.30
2018-07-02T03:50:53.675Z,13.30
2018-07-02T03:53:21.931Z,13.20
2018-07-02T03:55:50.164Z,13.10
2018-07-02T03:58:18.372Z,13.00
2018-07-02T04:00:46.614Z,13.00
2018-07-02T04:03:14.890Z,12.90
2018-07-02T04:05:43.109Z,13.00
2018-07-02T04:08:11.337Z,13.00
2018-07-02T04:10:39.617Z,12.90
2018-07-02T04:13:07.896Z,12.90
2018-07-02T04:15:36.103Z,13.00
2018-07-02T04:18:04.342Z,13.10
2018-07-02T04:20:32.620Z,13.10
2018-07-02T04:23:00.814Z,13.10
2018-07-02T04:25:29.109Z,13.20
2018-07-02T04:27:57.319Z,13.20
2018-07-02T04:30:25.532Z,13.30
2018-07-02T04:32:53.739Z,13.30
2018-07-02T04:35:21.989Z,13.30
2018-07-02T04:37:50.225Z,13.20
2018-07-02T04:40:18.546Z,13.10
2018-07-02T04:42:46.755Z,13.10
2018-07-02T04:45:14.996Z,13.10
2018-07-02T04:47:43.170Z,13.20
2018-07-02T04:50:11.370Z,13.10
2018-07-02T04:52:39.586Z,13.20
2018-07-02T04:55:07.847Z,13.30
2018-07-02T04:57:37.048Z,13.40
2018-07-02T05:00:05.787Z,13.40
2018-07-02T05:02:34.027Z,13.50
2018-07-02T05:05:02.291Z,13.70
2018-07-02T05:07:30.591Z,13.80
2018-07-02T05:09:58.874Z,14.00
2018-07-02T05:12:27.144Z,14.20
2018-07-02T05:14:55.468Z,14.30
2018-07-02T05:17:23.806Z,14.40
2018-07-02T05:19:52.038Z,14.50
2018-07-02T05:22:20.239Z,14.90
2018-07-02T05:24:48.451Z,15.10
2018-07-02T05:27:16.682Z,15.60
2018-07-02T05:29:44.937Z,16.10
2018-07-02T05:32:13.151Z,16.60
2018-07-02T05:34:41.411Z,16.90
2018-07-02T05:37:09.687Z,17.30
2018-07-02T05:39:37.998Z,17.40
2018-07-02T05:42:06.255Z,17.80
2018-07-02T05:44:34.474Z,18.20
2018-07-02T05:47:02.704Z,18.40
2018-07-02T05:49:30.968Z,18.40
2018-07-02T05:51:59.242Z,18.40
2018-07-02T05:54:27.469Z,18.90
2018-07-02T05:56:55.708Z,18.90
2018-07-02T05:59:23.975Z,19.10
2018-07-02T06:01:52.202Z,19.70
2018-07-02T06:04:26.987Z,20.30
2018-07-02T06:06:55.557Z,20.10
2018-07-02T06:09:23.761Z,20.30
2018-07-02T06:11:52.107Z,20.80
2018-07-02T06:14:20.353Z,20.80
2018-07-02T06:16:48.546Z,21.20
2018-07-02T06:19:16.727Z,21.30
2018-07-02T06:21:44.925Z,21.30
2018-07-02T06:24:13.138Z,21.30
2018-07-02T06:26:41.338Z,21.80
2018-07-02T06:29:09.555Z,21.70
2018-07-02T06:31:37.764Z,21.60
2018-07-02T06:34:05.993Z,21.30
2018-07-02T06:36:35.611Z,21.30
2018-07-02T06:39:06.086Z,21.60
2018-07-02T06:41:34.363Z,21.40
2018-07-02T06:44:02.566Z,21.10
2018-07-02T06:46:30.802Z,20.80
2018-07-02T06:48:59.019Z,20.10
2018-07-02T06:51:27.291Z,20.70
2018-07-02T06:53:55.506Z,20.30
2018-07-02T06:56:23.702Z,21.00
2018-07-02T06:58:51.920Z,21.50
2018-07-02T07:01:20.154Z,21.80
2018-07-02T07:03:48.430Z,22.40
2018-07-02T07:06:16.684Z,22.30
2018-07-02T07:08:44.938Z,22.70
2018-07-02T07:11:13.218Z,22.50
2018-07-02T07:13:41.429Z,22.70
2018-07-02T07:16:09.752Z,22.50
2018-07-02T07:18:37.961Z,23.00
2018-07-02T07:21:06.192Z,23.40
2018-07-02T07:23:34.471Z,23.00
2018-07-02T07:26:02.674Z,22.50
2018-07-02T07:28:30.910Z,22.50
2018-07-02T07:30:59.267Z,22.60
2018-07-02T07:33:27.449Z,22.70
2018-07-02T07:35:55.679Z,23.10
2018-07-02T07:38:23.926Z,23.20
2018-07-02T07:40:52.649Z,22.70
2018-07-02T07:43:21.028Z,22.50
2018-07-02T07:45:49.262Z,23.20
2018-07-02T07:50:45.507Z,23.20
2018-07-02T07:53:13.753Z,23.70
2018-07-02T07:55:41.919Z,23.60
2018-07-02T07:58:10.163Z,23.10
2018-07-02T08:00:38.372Z,22.80
2018-07-02T08:03:06.600Z,22.80
2018-07-02T08:05:35.090Z,23.40
2018-07-02T08:08:03.277Z,23.80
2018-07-02T08:10:31.567Z,23.10
2018-07-02T08:12:59.714Z,23.30
2018-07-02T08:15:27.923Z,22.90
2018-07-02T08:17:56.223Z,23.00
2018-07-02T08:20:24.429Z,22.90
2018-07-02T08:22:52.920Z,22.30
2018-07-02T08:25:21.206Z,22.60
2018-07-02T08:27:49.425Z,23.30
2018-07-02T08:30:17.666Z,23.30
2018-07-02T08:32:45.901Z,24.10
2018-07-02T08:35:14.370Z,24.60
2018-07-02T08:37:42.570Z,24.90
2018-07-02T08:40:10.860Z,24.40
2018-07-02T08:42:39.126Z,23.60
2018-07-02T08:45:08.183Z,23.60
2018-07-02T08:47:36.382Z,23.70
2018-07-02T08:50:05.071Z,24.00
2018-07-02T08:52:33.278Z,24.30
2018-07-02T08:55:01.504Z,24.60
2018-07-02T08:57:29.745Z,25.10
2018-07-02T08:59:57.942Z,25.70
2018-07-02T09:02:26.135Z,24.90
2018-07-02T09:04:54.320Z,24.20
2018-07-02T09:07:22.543Z,24.60
2018-07-02T09:09:50.925Z,25.30
2018-07-02T09:12:19.208Z,25.30
2018-07-02T09:14:47.522Z,25.70
2018-07-02T09:17:15.612Z,26.00
2018-07-02T09:19:47.795Z,25.70
2018-07-02T09:22:16.236Z,25.60
2018-07-02T09:24:44.493Z,25.60
2018-07-02T09:27:12.771Z,25.80
2018-07-02T09:29:40.984Z,25.60
2018-07-02T09:32:09.211Z,25.40
2018-07-02T09:34:37.467Z,25.30
2018-07-02T09:37:05.761Z,25.90
2018-07-02T09:39:34.071Z,25.70
2018-07-02T09:42:02.364Z,25.70
2018-07-02T09:44:30.609Z,25.90
2018-07-02T09:46:58.834Z,25.50
2018-07-02T09:49:27.147Z,25.80
2018-07-02T09:51:55.485Z,26.00
2018-07-02T09:54:23.760Z,25.90
2018-07-02T09:56:51.986Z,25.60
2018-07-02T09:59:20.267Z,25.60
2018-07-02T10:01:48.491Z,25.40
2018-07-02T10:04:16.703Z,24.50
2018-07-02T10:06:47.667Z,24.50
2018-07-02T10:09:15.994Z,24.80
2018-07-02T10:11:44.226Z,25.00
2018-07-02T10:14:12.447Z,24.80
2018-07-02T10:16:41.359Z,24.70
2018-07-02T10:19:09.612Z,25.10
2018-07-02T10:21:38.027Z,25.20
2018-07-02T10:24:06.426Z,25.40
2018-07-02T10:26:34.651Z,24.70
2018-07-02T10:29:03.007Z,25.10
2018-07-02T10:31:31.319Z,25.90
2018-07-02T10:33:59.495Z,26.60
2018-07-02T10:36:27.687Z,27.30
2018-07-02T10:38:55.890Z,27.20
2018-07-02T10:41:24.471Z,26.30
2018-07-02T10:43:52.729Z,26.50
2018-07-02T10:46:20.951Z,26.60
2018-07-02T10:48:49.150Z,26.70
2018-07-02T10:51:17.400Z,26.90
2018-07-02T10:53:45.819Z,26.90
2018-07-02T10:56:14.045Z,26.60
2018-07-02T10:58:42.327Z,25.70
2018-07-02T11:01:10.594Z,25.10
2018-07-02T11:03:38.798Z,24.60
2018-07-02T11:06:07.061Z,24.20
2018-07-02T11:08:35.321Z,24.00
2018-07-02T11:11:03.623Z,23.80
2018-07-02T11:13:31.870Z,23.80
2018-07-02T11:16:00.086Z,23.90
2018-07-02T11:18:28.300Z,23.90
2018-07-02T11:20:56.542Z,23.40
2018-07-02T11:23:24.799Z,23.10
2018-07-02T11:28:21.083Z,23.10
2018-07-02T11:30:49.330Z,22.80
2018-07-02T11:33:17.539Z,22.70
2018-07-02T11:35:45.802Z,22.70
2018-07-02T11:38:14.030Z,22.60
2018-07-02T11:40:42.470Z,22.50
2018-07-02T11:43:10.907Z,22.60
2018-07-02T11:45:39.193Z,22.80
2018-07-02T11:48:07.806Z,22.90
2018-07-02T11:50:42.592Z,23.10
2018-07-02T11:53:10.969Z,23.20
2018-07-02T11:55:39.203Z,23.30
2018-07-02T11:58:07.481Z,23.30
2018-07-02T12:00:35.774Z,23.40
2018-07-02T12:03:04.095Z,23.30
2018-07-02T12:05:32.361Z,23.20
2018-07-02T12:08:00.607Z,23.20
2018-07-02T12:10:28.861Z,23.30
2018-07-02T12:12:57.160Z,23.40
2018-07-02T12:15:25.549Z,23.50
2018-07-02T12:17:56.806Z,23.50
2018-07-02T12:20:25.042Z,23.50
2018-07-02T12:22:53.360Z,23.40
2018-07-02T12:25:21.606Z,23.40
2018-07-02T12:27:49.987Z,23.60
2018-07-02T12:30:18.227Z,23.60
2018-07-02T12:32:46.457Z,23.70
2018-07-02T12:35:14.791Z,23.60
2018-07-02T12:37:43.119Z,23.70
2018-07-02T12:40:11.385Z,23.70
2018-07-02T12:42:39.660Z,23.80
2018-07-02T12:45:08.041Z,24.00
2018-07-02T12:47:36.326Z,24.10
2018-07-02T12:50:04.739Z,23.90
2018-07-02T12:52:33.078Z,24.00
2018-07-02T12:55:01.316Z,24.10
2018-07-02T12:57:29.570Z,24.30
2018-07-02T12:59:57.858Z,24.30
2018-07-02T13:04:54.937Z,24.10
2018-07-02T13:07:23.193Z,24.20
2018-07-02T13:09:51.426Z,24.40
2018-07-02T13:12:19.648Z,24.40
2018-07-02T13:14:47.985Z,24.20
2018-07-02T13:17:16.351Z,24.20
2018-07-02T13:19:44.564Z,24.20
2018-07-02T13:22:12.794Z,24.30
2018-07-02T13:24:41.374Z,24.10
2018-07-02T13:27:09.592Z,24.10
2018-07-02T13:29:37.911Z,24.20
2018-07-02T13:32:06.200Z,24.30
2018-07-02T13:34:34.500Z,24.30
2018-07-02T13:37:02.832Z,24.20
2018-07-02T13:39:31.220Z,24.20
2018-07-02T13:41:59.434Z,24.30
2018-07-02T13:44:27.658Z,24.10
2018-07-02T13:46:55.882Z,24.30
2018-07-02T13:49:24.100Z,24.40
2018-07-02T13:51:52.296Z,24.60
2018-07-02T13:54:20.547Z,24.60
2018-07-02T13:56:48.794Z,24.60
2018-07-02T13:59:16.971Z,24.60
2018-07-02T14:01:45.242Z,24.50
2018-07-02T14:04:13.500Z,24.60
2018-07-02T14:06:41.719Z,24.70
2018-07-02T14:09:11.065Z,24.70
2018-07-02T14:11:40.371Z,24.70
2018-07-02T14:14:08.587Z,24.70
2018-07-02T14:16:36.844Z,24.70
2018-07-02T14:19:05.331Z,24.70
2018-07-02T14:21:33.691Z,24.70
2018-07-02T14:24:01.912Z,24.60
2018-07-02T14:26:30.170Z,24.60
2018-07-02T14:28:58.427Z,24.50
2018-07-02T14:31:26.693Z,24.60
2018-07-02T14:33:54.950Z,24.70
2018-07-02T14:36:23.238Z,24.60
2018-07-02T14:38:51.440Z,24.60
2018-07-02T14:41:19.875Z,24.60
2018-07-02T14:43:48.103Z,24.70
2018-07-02T14:46:16.543Z,24.70
2018-07-02T14:48:44.944Z,24.70
2018-07-02T14:51:13.195Z,24.80
2018-07-02T14:53:41.613Z,24.90
2018-07-02T14:56:09.887Z,24.90
2018-07-02T14:58:38.137Z,24.90
2018-07-02T15:01:06.340Z,24.90
2018-07-02T15:03:34.576Z,24.80
2018-07-02T15:06:02.865Z,24.80
2018-07-02T15:08:31.126Z,24.80
2018-07-02T15:10:59.393Z,24.90
2018-07-02T15:13:27.641Z,25.00
2018-07-02T15:15:55.857Z,25.10
2018-07-02T15:18:24.147Z,25.20
2018-07-02T15:20:52.403Z,25.10
2018-07-02T15:23:20.648Z,25.10
2018-07-02T15:25:48.877Z,25.20
2018-07-02T15:28:17.145Z,25.00
2018-07-02T15:30:45.417Z,24.90
2018-07-02T15:33:13.749Z,24.90
2018-07-02T15:35:42.064Z,24.90
2018-07-02T15:38:11.062Z,24.80
2018-07-02T15:40:39.278Z,24.80
2018-07-02T15:43:07.512Z,24.90
2018-07-02T15:45:35.912Z,24.80
2018-07-02T15:48:04.149Z,24.90
2018-07-02T15:50:32.676Z,24.90
2018-07-02T15:53:00.934Z,25.00
2018-07-02T15:55:29.188Z,25.00
2018-07-02T15:57:57.377Z,24.90
2018-07-02T16:00:25.764Z,24.90
2018-07-02T16:02:54.087Z,24.80
2018-07-02T16:05:22.331Z,24.80
2018-07-02T16:07:50.587Z,24.80
2018-07-02T16:10:18.945Z,24.80
2018-07-02T16:12:47.185Z,24.60
2018-07-02T16:15:15.466Z,24.60
2018-07-02T16:17:43.669Z,24.60
2018-07-02T16:20:11.905Z,24.60
2018-07-02T16:22:40.110Z,24.70
2018-07-02T16:25:08.318Z,24.70
2018-07-02T16:27:36.546Z,24.60
2018-07-02T16:30:06.608Z,24.60
2018-07-02T16:32:34.920Z,24.50
2018-07-02T16:35:03.145Z,24.50
2018-07-02T16:37:31.388Z,24.50
2018-07-02T16:39:59.616Z,24.50
2018-07-02T16:42:27.959Z,24.40
2018-07-02T16:44:56.168Z,24.40
2018-07-02T16:47:24.388Z,24.50
2018-07-02T16:49:52.690Z,24.60
2018-07-02T16:52:20.980Z,24.60
2018-07-02T16:54:49.261Z,24.70
2018-07-02T16:57:17.465Z,24.60
2018-07-02T16:59:45.745Z,24.50
2018-07-02T17:02:14.002Z,24.40
2018-07-02T17:04:42.243Z,24.20
2018-07-02T17:07:10.498Z,24.10
2018-07-02T17:09:38.799Z,24.10
2018-07-02T17:12:07.123Z,24.10
2018-07-02T17:14:35.758Z,24.10
2018-07-02T17:17:03.994Z,24.10
2018-07-02T17:19:32.306Z,24.10
2018-07-02T17:22:00.586Z,24.10
2018-07-02T17:24:28.778Z,24.10
2018-07-02T17:26:56.991Z,24.00
2018-07-02T17:29:25.216Z,24.10
2018-07-02T17:31:53.783Z,24.10
2018-07-02T17:34:22.101Z,24.10
2018-07-02T17:36:50.358Z,24.00
2018-07-02T17:39:18.576Z,24.00
2018-07-02T17:41:46.871Z,24.00
2018-07-02T17:44:15.584Z,23.90
2018-07-02T17:46:43.840Z,23.90
2018-07-02T17:49:12.060Z,23.90
2018-07-02T17:51:40.409Z,23.90
2018-07-02T17:54:08.647Z,23.80
2018-07-02T17:56:36.976Z,23.70
2018-07-02T17:59:05.299Z,23.80
2018-07-02T18:01:33.538Z,23.70
2018-07-02T18:04:01.838Z,23.70
2018-07-02T18:06:30.089Z,23.60
2018-07-02T18:08:58.442Z,23.60
2018-07-02T18:11:26.876Z,23.60
2018-07-02T18:13:55.243Z,23.60
2018-07-02T18:16:29.850Z,23.50
2018-07-02T18:18:58.074Z,23.50
2018-07-02T18:21:26.346Z,23.40
2018-07-02T18:23:54.602Z,23.40
2018-07-02T18:26:22.982Z,23.40
2018-07-02T18:28:51.239Z,23.40
2018-07-02T18:31:19.530Z,23.30
2018-07-02T18:33:47.828Z,23.30
2018-07-02T18:36:16.252Z,23.30
2018-07-02T18:38:44.586Z,23.20
2018-07-02T18:41:12.848Z,23.10
2018-07-02T18:43:41.178Z,23.10
2018-07-02T18:46:09.442Z,23.10
2018-07-02T18:48:38.052Z,23.10
2018-07-02T18:51:06.304Z,23.00
2018-07-02T18:53:34.619Z,23.00
2018-07-02T18:56:02.933Z,23.00
2018-07-02T18:58:31.830Z,23.00
2018-07-02T19:01:00.144Z,23.00
2018-07-02T19:03:28.455Z,22.90
2018-07-02T19:05:56.840Z,22.90
2018-07-02T19:08:25.600Z,22.90
2018-07-02T19:10:54.112Z,22.80
2018-07-02T19:13:22.384Z,22.80
2018-07-02T19:15:50.710Z,22.80
2018-07-02T19:18:19.146Z,22.70
2018-07-02T19:20:47.465Z,22.70
2018-07-02T19:23:15.699Z,22.70
2018-07-02T19:25:44.039Z,22.60
2018-07-02T19:28:12.357Z,22.60
2018-07-02T19:30:40.733Z,22.60
2018-07-02T19:33:09.104Z,22.50
2018-07-02T19:35:37.452Z,22.40
2018-07-02T19:38:05.777Z,22.40
2018-07-02T19:40:34.066Z,22.40
2018-07-02T19:43:02.436Z,22.30
2018-07-02T19:45:30.692Z,22.20
2018-07-02T19:47:58.953Z,22.10
2018-07-02T19:50:27.204Z,22.10
2018-07-02T19:52:55.526Z,22.00
2018-07-02T19:55:23.794Z,22.10
2018-07-02T19:57:52.079Z,22.00
2018-07-02T20:00:20.374Z,22.00
2018-07-02T20:02:48.698Z,21.90
2018-07-02T20:07:45.019Z,21.90
2018-07-02T20:10:13.242Z,21.80
2018-07-02T20:15:09.552Z,21.60
2018-07-02T20:17:37.759Z,21.60
2018-07-02T20:20:08.571Z,21.50
2018-07-02T20:22:37.241Z,21.40
2018-07-02T20:25:05.654Z,21.30
2018-07-02T20:27:33.906Z,21.20
2018-07-02T20:30:02.524Z,21.10
2018-07-02T20:32:30.927Z,21.10
2018-07-02T20:34:59.472Z,21.10
2018-07-02T20:37:27.775Z,21.10
2018-07-02T20:39:56.113Z,21.00
2018-07-02T20:42:24.338Z,21.00
2018-07-02T20:44:52.646Z,21.00
2018-07-02T20:47:20.874Z,20.90
2018-07-02T20:49:49.178Z,20.90
2018-07-02T20:52:17.607Z,20.80
2018-07-02T20:54:45.886Z,20.80
2018-07-02T20:57:14.259Z,20.80
2018-07-02T20:59:42.455Z,20.80
2018-07-02T21:02:10.718Z,20.70
2018-07-02T21:04:38.989Z,20.60
2018-07-02T21:07:07.274Z,20.50
2018-07-02T21:09:35.590Z,20.60
2018-07-02T21:12:10.590Z,20.50
2018-07-02T21:14:38.867Z,20.50
2018-07-02T21:17:07.103Z,20.40
2018-07-02T21:19:35.321Z,20.50
2018-07-02T21:22:03.569Z,20.30
2018-07-02T21:24:31.845Z,20.20
2018-07-02T21:27:00.049Z,20.10
2018-07-02T21:29:28.306Z,20.10
2018-07-02T21:31:56.554Z,20.10
2018-07-02T21:34:24.865Z,20.10
2018-07-02T21:36:53.205Z,20.10
2018-07-02T21:39:21.414Z,20.10
2018-07-02T21:41:49.671Z,20.10
2018-07-02T21:44:17.965Z,20.10
2018-07-02T21:46:46.249Z,20.00
2018-07-02T21:49:14.532Z,20.00
2018-07-02T21:51:42.814Z,19.90
2018-07-02T21:54:11.278Z,19.90
2018-07-02T21:56:39.553Z,19.90
2018-07-02T21:59:07.849Z,19.80
2018-07-02T22:01:36.114Z,19.80
2018-07-02T22:04:04.284Z,19.70
2018-07-02T22:06:32.560Z,19.70
2018-07-02T22:09:00.822Z,19.70
2018-07-02T22:11:29.275Z,19.70
2018-07-02T22:13:57.594Z,19.60
2018-07-02T22:16:25.874Z,19.60
2018-07-02T22:18:54.119Z,19.50
2018-07-02T22:21:22.335Z,19.40
2018-07-02T22:23:50.597Z,19.40
2018-07-02T22:26:18.856Z,19.40
2018-07-02T22:28:47.142Z,19.40
2018-07-02T22:31:15.415Z,19.30
2018-07-02T22:33:43.683Z,19.40
2018-07-02T22:36:11.917Z,19.30
2018-07-02T22:38:40.148Z,19.30
2018-07-02T22:41:08.395Z,19.20
2018-07-02T22:43:36.704Z,19.10
2018-07-02T22:46:05.026Z,19.20
2018-07-02T22:48:33.270Z,19.20
2018-07-02T22:51:01.530Z,19.10
2018-07-02T22:53:29.887Z,19.10
2018-07-02T22:56:01.204Z,19.10
2018-07-02T22:58:29.430Z,19.00
2018-07-02T23:00:58.593Z,19.00
2018-07-02T23:03:26.885Z,18.90
2018-07-02T23:05:55.388Z,18.90
2018-07-02T23:08:24.171Z,18.90
2018-07-02T23:10:52.429Z,18.80
2018-07-02T23:13:20.814Z,18.70
2018-07-02T23:15:49.001Z,18.60
2018-07-02T23:18:17.290Z,18.50
2018-07-02T23:20:45.562Z,18.40
2018-07-02T23:23:13.826Z,18.40
2018-07-02T23:28:10.058Z,18.30
2018-07-02T23:30:38.327Z,18.30
2018-07-02T23:33:06.621Z,18.20
2018-07-02T23:35:34.859Z,18.10
2018-07-02T23:38:03.137Z,18.00
2018-07-02T23:40:31.436Z,18.00
2018-07-02T23:42:59.697Z,18.00
2018-07-02T23:45:27.962Z,18.00
2018-07-02T23:47:56.171Z,17.90
2018-07-02T23:50:24.415Z,18.00
2018-07-02T23:52:52.706Z,17.90
2018-07-02T23:55:20.910Z,17.90
2018-07-02T23:57:49.095Z,17.80
